Rochester/St. Mary\'s Hospita, MN

11:43 AM CDT on August 21, 2017 (GMT -0500)
Rochester/St. Mary\'s Hospita

Weather History for K9MN - November, 2013

Change the Weather History Date:

Thursday, November 28, 2013

  Actual Average (KRST) Record (KRST)
Temperature  
Mean Temperature 22 °F -  
Max Temperature 28 °F 29 °F 62 °F (1909)
Min Temperature 17 °F 14 °F -24 °F (1887)
Degree Days  
Heating Degree Days 42    
Moisture  
Dew Point 10 °F    
Average Humidity 60    
Maximum Humidity 75    
Minimum Humidity 47    
Precipitation  
Precipitation 0.00 in - - ()
Sea Level Pressure  
Sea Level Pressure 30.25 in    
Wind  
Wind Speed 8 mph (WNW)    
Max Wind Speed 17 mph    
Max Gust Speed 23 mph    
Visibility 10 miles    
Events      
Averages and records for this station are not official NWS values.
T = Trace of Precipitation, MM = Missing Value Source: NWS Daily Summary

Daily Weather History Graph

Daily Weather History Graph

Search for Another Location

Airport or City:

Trip Planner

Search our weather history database for the weather conditions in past years. The results will help you decide how hot, cold, wet, or windy it might be!

Date:

Astronomy

Nov. 28, 2013 Rise Set
Actual Time 7:21 AM CST 4:34 PM CST
Civil Twilight 6:49 AM CST 5:06 PM CST
Nautical Twilight 6:13 AM CST 5:42 PM CST
Astronomical Twilight 5:38 AM CST 6:16 PM CST
Moon 2:15 AM CST (11/28) 1:52 PM CST (11/28)
Length of Visible Light 10h 17m
Length of Day
9h 12m
Waning Crescent, 22% of the Moon is Illuminated
Nov 28
Waning Crescent
Dec 2
New
Dec 9
First Quarter
Dec 17
Full
Dec 25
Last Quarter

Hourly Weather History & Observations

Time (CST) Temp. Windchill Dew Point Humidity Pressure Visibility Wind Dir Wind Speed Gust Speed Precip Events Conditions
12:13 AM 20.1 °F 8.1 °F 7.7 °F 59% 30.05 in 10.0 mi SE 11.5 mph - N/A   Overcast
12:33 AM 20.3 °F 9.0 °F 8.4 °F 60% 30.05 in 10.0 mi SE 10.4 mph - N/A   Overcast
12:53 AM 20.3 °F 8.3 °F 8.1 °F 59% 30.05 in 10.0 mi SE 11.5 mph 16.1 mph N/A   Overcast
1:13 AM 20.3 °F 10.6 °F 8.2 °F 60% 30.05 in 10.0 mi SSE 8.1 mph - N/A   Overcast
1:33 AM 20.7 °F 9.5 °F 8.2 °F 59% 30.04 in 10.0 mi SSE 10.4 mph 16.1 mph N/A   Overcast
1:53 AM 20.8 °F 12.1 °F 8.6 °F 59% 30.05 in 10.0 mi SE 6.9 mph - N/A   Overcast
2:13 AM 21.0 °F 9.9 °F 8.4 °F 58% 30.05 in 10.0 mi SSE 10.4 mph 16.1 mph N/A   Overcast
2:33 AM 21.0 °F 13.4 °F 8.6 °F 59% 30.05 in 10.0 mi SSE 5.8 mph - N/A   Overcast
2:53 AM 20.8 °F 14.4 °F 8.6 °F 59% 30.06 in 10.0 mi South 4.6 mph - N/A   Overcast
3:14 AM 21.2 °F 14.9 °F 9.1 °F 60% 30.06 in 10.0 mi South 4.6 mph - N/A   Overcast
3:33 AM 20.8 °F 16.0 °F 9.3 °F 61% 30.06 in 10.0 mi SSE 3.5 mph - N/A   Overcast
3:53 AM 20.7 °F 13.0 °F 9.0 °F 61% 30.07 in 10.0 mi South 5.8 mph - N/A   Overcast
4:14 AM 21.2 °F 16.4 °F 9.7 °F 61% 30.07 in 10.0 mi SSW 3.5 mph - N/A   Overcast
4:33 AM 21.2 °F 14.9 °F 9.5 °F 61% 30.07 in 10.0 mi South 4.6 mph - N/A   Overcast
4:53 AM 21.7 °F - 10.4 °F 62% 30.08 in 10.0 mi Calm Calm - N/A   Overcast
5:14 AM 22.3 °F - 10.9 °F 62% 30.09 in 10.0 mi Calm Calm - N/A   Overcast
5:33 AM 22.6 °F - 11.1 °F 61% 30.10 in 10.0 mi Calm Calm - N/A   Overcast
5:53 AM 23.0 °F 18.4 °F 11.8 °F 62% 30.10 in 10.0 mi WSW 3.5 mph - N/A   Overcast
6:14 AM 23.0 °F 15.8 °F 11.5 °F 61% 30.12 in 10.0 mi West 5.8 mph - N/A   Overcast
6:33 AM 22.5 °F 13.2 °F 11.7 °F 63% 30.12 in 10.0 mi WNW 8.1 mph - N/A   Overcast
6:53 AM 22.5 °F 12.4 °F 11.5 °F 63% 30.13 in 10.0 mi WNW 9.2 mph - N/A   Overcast
7:14 AM 21.9 °F 11.0 °F 11.8 °F 65% 30.14 in 10.0 mi WNW 10.4 mph - N/A   Overcast
7:33 AM 21.6 °F 13.0 °F 11.8 °F 66% 30.15 in 10.0 mi West 6.9 mph - N/A   Overcast
7:53 AM 21.9 °F 10.4 °F 12.0 °F 66% 30.16 in 10.0 mi WNW 11.5 mph 20.7 mph N/A   Overcast
8:13 AM 21.9 °F 11.7 °F 11.5 °F 64% 30.17 in 10.0 mi NW 9.2 mph - N/A   Overcast
8:33 AM 21.9 °F 13.4 °F 11.3 °F 64% 30.18 in 10.0 mi NW 6.9 mph - N/A   Overcast
8:53 AM 21.9 °F 11.7 °F 11.1 °F 63% 30.19 in 10.0 mi NW 9.2 mph 16.1 mph N/A   Overcast
9:13 AM 22.5 °F 12.4 °F 11.5 °F 63% 30.20 in 10.0 mi WNW 9.2 mph - N/A   Overcast
9:33 AM 22.1 °F 12.0 °F 11.3 °F 63% 30.21 in 10.0 mi NW 9.2 mph 17.3 mph N/A   Overcast
9:53 AM 23.0 °F 12.4 °F 11.3 °F 61% 30.22 in 10.0 mi NW 10.4 mph 16.1 mph N/A   Overcast
10:13 AM 23.9 °F 14.2 °F 11.1 °F 58% 30.23 in 10.0 mi NW 9.2 mph 17.3 mph N/A   Scattered Clouds
10:33 AM 24.3 °F 16.3 °F 11.1 °F 57% 30.24 in 10.0 mi NW 6.9 mph 16.1 mph N/A   Clear
10:53 AM 25.0 °F 15.5 °F 10.9 °F 55% 30.23 in 10.0 mi WNW 9.2 mph 16.1 mph N/A   Clear
11:13 AM 26.1 °F 15.6 °F 11.1 °F 53% 30.24 in 10.0 mi WNW 11.5 mph 17.3 mph N/A   Clear
11:33 AM 26.1 °F 16.2 °F 10.4 °F 52% 30.24 in 10.0 mi NW 10.4 mph 16.1 mph N/A   Clear
11:53 AM 26.6 °F 17.5 °F 10.2 °F 50% 30.24 in 10.0 mi NW 9.2 mph 16.1 mph N/A   Clear
12:13 PM 27.3 °F 18.4 °F 10.0 °F 48% 30.24 in 10.0 mi WNW 9.2 mph 17.3 mph N/A   Clear
12:33 PM 27.5 °F 18.0 °F 9.7 °F 47% 30.25 in 10.0 mi NW 10.4 mph 23.0 mph N/A   Clear
12:53 PM 27.5 °F 15.0 °F 9.9 °F 48% 30.25 in 10.0 mi WNW 17.3 mph 23.0 mph N/A   Clear
1:13 PM 28.2 °F 17.2 °F 10.0 °F 47% 30.25 in 10.0 mi WNW 13.8 mph 23.0 mph N/A   Clear
1:33 PM 27.7 °F 16.6 °F 9.9 °F 47% 30.26 in 10.0 mi NW 13.8 mph 20.7 mph N/A   Scattered Clouds
1:53 PM 28.6 °F 17.7 °F 10.6 °F 47% 30.26 in 10.0 mi WNW 13.8 mph 17.3 mph N/A   Scattered Clouds
2:13 PM 28.4 °F 17.5 °F 10.2 °F 47% 30.27 in 10.0 mi NW 13.8 mph 20.7 mph N/A   Clear
2:33 PM 28.6 °F 19.9 °F 10.4 °F 47% 30.28 in 10.0 mi NW 9.2 mph 21.9 mph N/A   Clear
2:54 PM 28.2 °F 15.9 °F 10.9 °F 48% 30.29 in 10.0 mi WNW 17.3 mph 21.9 mph N/A   Scattered Clouds
3:13 PM 28.0 °F 18.1 °F 10.6 °F 48% 30.30 in 10.0 mi NW 11.5 mph 18.4 mph N/A   Scattered Clouds
3:33 PM 27.3 °F 16.1 °F 10.8 °F 50% 30.31 in 10.0 mi WNW 13.8 mph 19.6 mph N/A   Scattered Clouds
3:54 PM 26.6 °F 14.7 °F 11.1 °F 52% 30.33 in 10.0 mi WNW 15.0 mph 19.6 mph N/A   Scattered Clouds
4:13 PM 26.2 °F 15.2 °F 11.1 °F 53% 30.34 in 10.0 mi WNW 12.7 mph 20.7 mph N/A   Scattered Clouds
4:33 PM 25.7 °F 15.1 °F 11.3 °F 55% 30.35 in 10.0 mi WNW 11.5 mph 16.1 mph N/A   Mostly Cloudy
4:54 PM 24.6 °F 15.8 °F 11.3 °F 57% 30.36 in 10.0 mi WNW 8.1 mph - N/A   Overcast
5:13 PM 24.3 °F 14.6 °F 11.1 °F 57% 30.37 in 10.0 mi WNW 9.2 mph 17.3 mph N/A   Mostly Cloudy
5:33 PM 23.7 °F 14.0 °F 11.1 °F 59% 30.38 in 10.0 mi NW 9.2 mph - N/A   Mostly Cloudy
5:53 PM 23.4 °F 15.2 °F 10.8 °F 59% 30.39 in 10.0 mi WNW 6.9 mph - N/A   Overcast
6:13 PM 22.5 °F 14.1 °F 10.9 °F 61% 30.40 in 10.0 mi WNW 6.9 mph - N/A   Scattered Clouds
6:33 PM 22.5 °F 13.2 °F 10.9 °F 61% 30.41 in 10.0 mi WNW 8.1 mph - N/A   Scattered Clouds
6:53 PM 22.1 °F 13.7 °F 11.1 °F 63% 30.42 in 10.0 mi WNW 6.9 mph - N/A   Mostly Cloudy
7:13 PM 21.2 °F 14.9 °F 10.8 °F 64% 30.42 in 10.0 mi NW 4.6 mph - N/A   Scattered Clouds
7:33 PM 20.8 °F 14.4 °F 10.8 °F 65% 30.43 in 10.0 mi WNW 4.6 mph - N/A   Clear
7:53 PM 20.1 °F 13.6 °F 10.2 °F 66% 30.43 in 10.0 mi WNW 4.6 mph - N/A   Clear
8:13 PM 20.3 °F 15.4 °F 10.6 °F 66% 30.43 in 10.0 mi NW 3.5 mph - N/A   Clear
8:33 PM 19.6 °F 14.5 °F 10.4 °F 68% 30.44 in 10.0 mi WNW 3.5 mph - N/A   Clear
8:53 PM 19.4 °F - 10.4 °F 68% 30.44 in 10.0 mi Calm Calm - N/A   Clear
9:13 PM 19.4 °F 14.3 °F 10.8 °F 69% 30.45 in 10.0 mi West 3.5 mph - N/A   Clear
9:33 PM 19.0 °F - 10.4 °F 69% 30.45 in 10.0 mi Calm Calm - N/A   Clear
9:53 PM 18.3 °F - 10.4 °F 71% 30.46 in 10.0 mi Calm Calm - N/A   Clear
10:13 PM 17.6 °F - 10.0 °F 72% 30.47 in 10.0 mi Calm Calm - N/A   Clear
10:33 PM 18.0 °F - 10.2 °F 72% 30.47 in 10.0 mi Calm Calm - N/A   Clear
10:53 PM 18.3 °F 13.1 °F 10.4 °F 71% 30.48 in 10.0 mi WNW 3.5 mph - N/A   Clear
11:13 PM 18.0 °F 12.7 °F 10.0 °F 71% 30.48 in 10.0 mi WNW 3.5 mph - N/A   Clear
11:34 PM 17.4 °F - 10.0 °F 73% 30.48 in 10.0 mi Calm Calm - N/A   Clear
11:53 PM 17.2 °F - 10.4 °F 75% 30.49 in 10.0 mi Calm Calm - N/A   Clear